Aquadale, North Carolina
Current Conditions -  °F | °C
As of 6:55 AM on Sunday 23 Nov 2014 (Local Time) from KVUJ Reporting Station
Drizzle Drizzle  
Wind Chill: 45°   Ceiling: 2800
Heat Index: 45°   Visibility: 10mi
Dew Point: 35°   Wind: 0mph
Humidity: 68%   Direction: NA
Pressure: 30.28"   Gusts: NA
Location:  35.2152°N, 80.1663°W
Report Text: KVUJ 231155Z AUTO 00000KT 10SM -DZ OVC028 07/01 A3028 RMK AO2 T00700014 10070 20007
Loading
Personal Weather Stations






























Interactive Weather Map New forecast layout! Learn more

10-Day Weather Forecast

Advertisements
Track Severe Weather on mobile